Nelsonia, Virginia
Current Conditions -  °F | °C
As of 3:54 PM on Tuesday 25 Nov 2014 (Local Time) from KWAL Reporting Station
Overcast Overcast  
Wind Chill: 56°   Ceiling: 3000
Heat Index: 56°   Visibility: 10mi
Dew Point: 42°   Wind: 5mph
Humidity: 60%   Direction: 30°NNE
Pressure: 30.07"   Gusts: NA
Location:  37.82°N, 75.59°W
Report Text: KWAL 252054Z 03004KT 10SM BKN030 OVC070 13/06 A3007 RMK AO2 SLP178 T01330056 53017
Loading
Personal Weather Stations






























Interactive Weather Map New forecast layout! Learn more

10-Day Weather Forecast

Advertisements
Track Severe Weather on mobile